Pagrindinis puslapis
METAR-TAF:

METAR-TAF

Oro uostai :

Longjyrbienas, Norvegija

platuma: 78-15N, ilguma: 015-28E, Aukštis: 2 m

Dabartinis oras

Ataskaita buvo paskelbta 25 minutes, ne 12:20 UTC
Vėjas 14 kt iš Pietų/Pietryčių
Temperatūra -9°C
Drėgmė 52%
Slėgis 1018 hPa
Matomumas 10 km arba daugiau
Mažai debesys ne aukštis 2000 ft

METAR: ENSB 161220Z 15014KT 9999 FEW020 M09/M17 Q1018 NOSIG RMK WIND 1400FT 12015KT

Laikas: 13:45 (12:45 UTC)

Prognozė

Prognozė galioja nuo 16 metu 12 UTC su 17 metu 12 UTC
Vėjas 12 kt iš Rytų/Pietryčių
Matomumas 10 km arba daugiau
Mažai debesys ne aukštis 2000 ft

TAF: ENSB 1612/1712 12012KT 9999 FEW020

Orai ataskaitas ir orų prognozės (METAR, TAF).

turimą stotys yra geltonos ir raudonos taškus žemėlapyje.

Perkelti pele per norėdami pamatyti stoties vardą.

Tada spustelėkite, norėdami matyti oro stebėjimo ir prognozės.

Norėdami pakeisti žemėlapį: spustelėkite ant žalios mygtukų su juodo kryžiaus žemyn,; žalią mygtuką su brūkšneliu, jei norite nutolinti; arba žalių rodyklių gretimoms žemėlapius.


METAR-TAF: